aviador You're here:

KHSI Decoded Metar

HASTINGS in NE, USA
Report Time2017-12-16 17:53:00
UTC Time2017-12-16 18:50:11
Flight Rules vfr VFR
Wind040° at 16 Gusting to 21 kt
W.Decomp.*RWY 04: 15.9 kt HW 1.9 kt LCW
RWY 32: 4.7 kt HW 15.3 kt RCW
W.Rank040° ranks 21
Current wind is above 040° avg. (9.1)
Visibility9999 m
Phenomena:N/A
Clouds:N/A
Expected CloudBase > 6,400 ft AGL from Temp-Dew spread
CeilingNone
Temp11°C (ISA -0)
Dew Point-5°C (32% RH)
AAT2.6°C
QNH1009 hPa
Density Alt2,119 ft
Elevation1,939 ft
Report Wrong Elevation
Raw Report
KHSI 161753Z AUTO 04016G21KT 10SM CLR 11/M05 A2981 RMK AO2 SLP100
T01111050 10111 21044 50008=

Extra information for KHSI:More info

Metar Taf Metar & Taf Last 4 Metars F.Rules Stats Wind Profile Meteogram Temp Stats Airport Information Weather charts Add Link Nearby VenuesMetar ALERT Operation Metar Decoded Social comments

AIRNAV info for KHSI